sensor_id;sensor_type;location;lat;lon;timestamp;P1;durP1;ratioP1;P2;durP2;ratioP2
50821;SDS011;36794;51.212;6.980;2023-06-10T00:01:13;7.07;;;5.97;;
50821;SDS011;36794;51.212;6.980;2023-06-10T00:03:39;9.85;;;5.47;;
50821;SDS011;36794;51.212;6.980;2023-06-10T00:06:06;10.68;;;5.63;;
50821;SDS011;36794;51.212;6.980;2023-06-10T00:08:32;9.90;;;5.97;;
50821;SDS011;36794;51.212;6.980;2023-06-10T00:10:58;9.07;;;5.43;;
50821;SDS011;36794;51.212;6.980;2023-06-10T00:13:24;7.45;;;5.90;;
50821;SDS011;36794;51.212;6.980;2023-06-10T00:15:50;8.30;;;5.47;;
50821;SDS011;36794;51.212;6.980;2023-06-10T00:18:16;8.30;;;5.60;;
50821;SDS011;36794;51.212;6.980;2023-06-10T00:20:42;9.02;;;6.03;;
50821;SDS011;36794;51.212;6.980;2023-06-10T00:23:08;9.32;;;6.43;;
50821;SDS011;36794;51.212;6.980;2023-06-10T00:25:34;10.80;;;6.20;;
50821;SDS011;36794;51.212;6.980;2023-06-10T00:28:00;8.88;;;6.00;;
50821;SDS011;36794;51.212;6.980;2023-06-10T00:30:26;7.72;;;6.00;;
50821;SDS011;36794;51.212;6.980;2023-06-10T00:32:52;7.60;;;5.78;;
50821;SDS011;36794;51.212;6.980;2023-06-10T00:35:18;8.90;;;5.53;;
50821;SDS011;36794;51.212;6.980;2023-06-10T00:37:44;9.82;;;6.28;;
50821;SDS011;36794;51.212;6.980;2023-06-10T00:40:10;8.55;;;6.07;;
50821;SDS011;36794;51.212;6.980;2023-06-10T00:42:37;8.65;;;5.80;;
50821;SDS011;36794;51.212;6.980;2023-06-10T00:45:03;8.35;;;6.07;;
50821;SDS011;36794;51.212;6.980;2023-06-10T00:47:31;9.68;;;5.63;;
50821;SDS011;36794;51.212;6.980;2023-06-10T00:49:57;7.65;;;5.65;;
50821;SDS011;36794;51.212;6.980;2023-06-10T00:52:24;8.38;;;5.82;;
50821;SDS011;36794;51.212;6.980;2023-06-10T00:54:51;11.68;;;6.13;;
50821;SDS011;36794;51.212;6.980;2023-06-10T00:57:17;11.00;;;6.57;;
50821;SDS011;36794;51.212;6.980;2023-06-10T00:59:45;7.63;;;5.90;;
50821;SDS011;36794;51.212;6.980;2023-06-10T01:02:12;7.90;;;5.53;;
50821;SDS011;36794;51.212;6.980;2023-06-10T01:04:38;7.75;;;5.72;;
50821;SDS011;36794;51.212;6.980;2023-06-10T01:12:15;7.60;;;5.80;;
50821;SDS011;36794;51.212;6.980;2023-06-10T01:14:42;8.93;;;6.75;;
50821;SDS011;36794;51.212;6.980;2023-06-10T01:17:10;10.35;;;6.32;;
50821;SDS011;36794;51.212;6.980;2023-06-10T01:19:36;7.85;;;6.03;;
50821;SDS011;36794;51.212;6.980;2023-06-10T01:22:02;8.07;;;5.85;;
50821;SDS011;36794;51.212;6.980;2023-06-10T01:24:28;8.75;;;6.20;;
50821;SDS011;36794;51.212;6.980;2023-06-10T01:26:58;7.45;;;6.00;;
50821;SDS011;36794;51.212;6.980;2023-06-10T01:29:31;15.63;;;6.45;;
50821;SDS011;36794;51.212;6.980;2023-06-10T01:32:12;8.57;;;5.80;;
50821;SDS011;36794;51.212;6.980;2023-06-10T01:34:42;8.00;;;5.57;;
50821;SDS011;36794;51.212;6.980;2023-06-10T01:37:08;7.15;;;5.95;;
50821;SDS011;36794;51.212;6.980;2023-06-10T01:39:35;8.68;;;6.05;;
50821;SDS011;36794;51.212;6.980;2023-06-10T01:42:01;7.65;;;6.50;;
50821;SDS011;36794;51.212;6.980;2023-06-10T01:44:28;7.47;;;5.97;;
50821;SDS011;36794;51.212;6.980;2023-06-10T01:46:53;9.30;;;6.35;;
50821;SDS011;36794;51.212;6.980;2023-06-10T01:49:20;10.18;;;6.68;;
50821;SDS011;36794;51.212;6.980;2023-06-10T01:51:48;8.15;;;6.93;;
50821;SDS011;36794;51.212;6.980;2023-06-10T01:54:14;8.52;;;6.10;;
50821;SDS011;36794;51.212;6.980;2023-06-10T01:56:43;6.63;;;5.93;;
50821;SDS011;36794;51.212;6.980;2023-06-10T01:59:09;12.55;;;7.03;;
50821;SDS011;36794;51.212;6.980;2023-06-10T02:01:35;8.35;;;6.18;;
50821;SDS011;36794;51.212;6.980;2023-06-10T02:04:01;10.30;;;6.07;;
50821;SDS011;36794;51.212;6.980;2023-06-10T02:06:27;8.85;;;6.28;;
50821;SDS011;36794;51.212;6.980;2023-06-10T02:08:52;11.48;;;6.70;;
50821;SDS011;36794;51.212;6.980;2023-06-10T02:11:18;10.18;;;6.60;;
50821;SDS011;36794;51.212;6.980;2023-06-10T02:13:45;7.60;;;6.70;;
50821;SDS011;36794;51.212;6.980;2023-06-10T02:16:11;9.57;;;6.45;;
50821;SDS011;36794;51.212;6.980;2023-06-10T02:18:38;10.50;;;6.75;;
50821;SDS011;36794;51.212;6.980;2023-06-10T02:21:05;10.05;;;6.60;;
50821;SDS011;36794;51.212;6.980;2023-06-10T02:23:32;7.50;;;6.70;;
50821;SDS011;36794;51.212;6.980;2023-06-10T02:25:57;8.68;;;6.75;;
50821;SDS011;36794;51.212;6.980;2023-06-10T02:28:23;8.93;;;6.35;;
50821;SDS011;36794;51.212;6.980;2023-06-10T02:30:49;10.95;;;7.15;;
50821;SDS011;36794;51.212;6.980;2023-06-10T02:33:15;10.77;;;6.72;;
50821;SDS011;36794;51.212;6.980;2023-06-10T02:35:42;10.63;;;6.38;;
50821;SDS011;36794;51.212;6.980;2023-06-10T02:38:08;8.45;;;6.30;;
50821;SDS011;36794;51.212;6.980;2023-06-10T02:40:34;11.15;;;6.95;;
50821;SDS011;36794;51.212;6.980;2023-06-10T02:43:00;12.65;;;6.43;;
50821;SDS011;36794;51.212;6.980;2023-06-10T02:45:26;7.60;;;6.25;;
50821;SDS011;36794;51.212;6.980;2023-06-10T02:47:52;10.18;;;6.50;;
50821;SDS011;36794;51.212;6.980;2023-06-10T02:50:18;8.77;;;6.82;;
50821;SDS011;36794;51.212;6.980;2023-06-10T02:52:44;14.48;;;7.15;;
50821;SDS011;36794;51.212;6.980;2023-06-10T02:55:10;9.68;;;6.20;;
50821;SDS011;36794;51.212;6.980;2023-06-10T02:57:36;9.25;;;6.43;;
50821;SDS011;36794;51.212;6.980;2023-06-10T03:00:02;8.25;;;6.43;;
50821;SDS011;36794;51.212;6.980;2023-06-10T03:02:34;10.77;;;6.63;;
50821;SDS011;36794;51.212;6.980;2023-06-10T03:05:02;8.02;;;6.50;;
50821;SDS011;36794;51.212;6.980;2023-06-10T03:07:28;9.93;;;6.55;;
50821;SDS011;36794;51.212;6.980;2023-06-10T03:09:55;12.30;;;7.13;;
50821;SDS011;36794;51.212;6.980;2023-06-10T03:12:21;10.13;;;6.47;;
50821;SDS011;36794;51.212;6.980;2023-06-10T03:14:47;9.18;;;6.28;;
50821;SDS011;36794;51.212;6.980;2023-06-10T03:17:13;8.40;;;6.82;;
50821;SDS011;36794;51.212;6.980;2023-06-10T03:19:39;7.20;;;6.43;;
50821;SDS011;36794;51.212;6.980;2023-06-10T03:22:08;8.45;;;6.68;;
50821;SDS011;36794;51.212;6.980;2023-06-10T03:24:35;8.48;;;6.25;;
50821;SDS011;36794;51.212;6.980;2023-06-10T03:27:01;9.85;;;6.55;;
50821;SDS011;36794;51.212;6.980;2023-06-10T03:29:29;8.55;;;6.70;;
50821;SDS011;36794;51.212;6.980;2023-06-10T03:31:55;10.02;;;6.75;;
50821;SDS011;36794;51.212;6.980;2023-06-10T03:34:21;8.10;;;6.32;;
50821;SDS011;36794;51.212;6.980;2023-06-10T03:36:48;8.30;;;6.55;;
50821;SDS011;36794;51.212;6.980;2023-06-10T03:39:14;7.57;;;6.57;;
50821;SDS011;36794;51.212;6.980;2023-06-10T03:41:40;15.10;;;7.10;;
50821;SDS011;36794;51.212;6.980;2023-06-10T03:44:06;9.57;;;6.82;;
50821;SDS011;36794;51.212;6.980;2023-06-10T03:46:32;10.20;;;7.00;;
50821;SDS011;36794;51.212;6.980;2023-06-10T03:48:58;8.20;;;6.90;;
50821;SDS011;36794;51.212;6.980;2023-06-10T03:51:25;9.77;;;6.65;;
50821;SDS011;36794;51.212;6.980;2023-06-10T03:53:52;9.02;;;6.55;;
50821;SDS011;36794;51.212;6.980;2023-06-10T03:56:17;6.70;;;6.00;;
50821;SDS011;36794;51.212;6.980;2023-06-10T03:58:44;8.20;;;6.57;;
50821;SDS011;36794;51.212;6.980;2023-06-10T04:01:10;8.38;;;6.65;;
50821;SDS011;36794;51.212;6.980;2023-06-10T04:03:38;9.48;;;6.70;;
50821;SDS011;36794;51.212;6.980;2023-06-10T04:06:06;12.45;;;6.68;;
50821;SDS011;36794;51.212;6.980;2023-06-10T04:08:32;10.13;;;6.82;;
50821;SDS011;36794;51.212;6.980;2023-06-10T04:10:58;7.70;;;6.55;;
50821;SDS011;36794;51.212;6.980;2023-06-10T04:13:24;10.18;;;6.70;;
50821;SDS011;36794;51.212;6.980;2023-06-10T04:15:51;10.32;;;6.47;;
50821;SDS011;36794;51.212;6.980;2023-06-10T04:18:17;9.40;;;6.40;;
50821;SDS011;36794;51.212;6.980;2023-06-10T04:20:43;10.57;;;6.82;;
50821;SDS011;36794;51.212;6.980;2023-06-10T04:23:09;9.65;;;6.97;;
50821;SDS011;36794;51.212;6.980;2023-06-10T04:25:35;11.68;;;7.07;;
50821;SDS011;36794;51.212;6.980;2023-06-10T04:28:01;11.75;;;6.68;;
50821;SDS011;36794;51.212;6.980;2023-06-10T04:30:28;10.20;;;6.22;;
50821;SDS011;36794;51.212;6.980;2023-06-10T04:32:53;7.68;;;6.45;;
50821;SDS011;36794;51.212;6.980;2023-06-10T04:35:19;8.63;;;7.00;;
50821;SDS011;36794;51.212;6.980;2023-06-10T04:37:46;8.57;;;6.35;;
50821;SDS011;36794;51.212;6.980;2023-06-10T04:40:12;8.50;;;6.53;;
50821;SDS011;36794;51.212;6.980;2023-06-10T04:42:38;13.85;;;6.90;;
50821;SDS011;36794;51.212;6.980;2023-06-10T04:45:04;8.57;;;6.25;;
50821;SDS011;36794;51.212;6.980;2023-06-10T04:47:30;12.18;;;6.30;;
50821;SDS011;36794;51.212;6.980;2023-06-10T04:49:58;11.35;;;6.85;;
50821;SDS011;36794;51.212;6.980;2023-06-10T04:52:24;10.57;;;6.60;;
50821;SDS011;36794;51.212;6.980;2023-06-10T04:54:50;11.52;;;7.32;;
50821;SDS011;36794;51.212;6.980;2023-06-10T04:57:16;7.97;;;6.60;;
50821;SDS011;36794;51.212;6.980;2023-06-10T04:59:42;8.70;;;6.10;;
50821;SDS011;36794;51.212;6.980;2023-06-10T05:02:08;8.07;;;6.43;;
50821;SDS011;36794;51.212;6.980;2023-06-10T05:04:34;7.95;;;6.10;;
50821;SDS011;36794;51.212;6.980;2023-06-10T05:07:00;8.43;;;6.03;;
50821;SDS011;36794;51.212;6.980;2023-06-10T05:09:26;9.25;;;6.30;;
50821;SDS011;36794;51.212;6.980;2023-06-10T05:11:52;8.52;;;6.15;;
50821;SDS011;36794;51.212;6.980;2023-06-10T05:14:19;8.93;;;6.63;;
50821;SDS011;36794;51.212;6.980;2023-06-10T05:16:46;7.90;;;6.05;;
50821;SDS011;36794;51.212;6.980;2023-06-10T05:19:14;8.00;;;6.43;;
50821;SDS011;36794;51.212;6.980;2023-06-10T05:21:44;11.00;;;6.47;;
50821;SDS011;36794;51.212;6.980;2023-06-10T05:24:10;11.48;;;6.35;;
50821;SDS011;36794;51.212;6.980;2023-06-10T05:26:36;9.02;;;6.63;;
50821;SDS011;36794;51.212;6.980;2023-06-10T05:29:03;8.10;;;6.43;;
50821;SDS011;36794;51.212;6.980;2023-06-10T05:31:29;7.10;;;6.10;;
50821;SDS011;36794;51.212;6.980;2023-06-10T05:33:55;8.48;;;6.15;;
50821;SDS011;36794;51.212;6.980;2023-06-10T05:36:21;10.10;;;6.07;;
50821;SDS011;36794;51.212;6.980;2023-06-10T05:38:50;7.53;;;6.15;;
50821;SDS011;36794;51.212;6.980;2023-06-10T05:41:16;9.38;;;6.18;;
50821;SDS011;36794;51.212;6.980;2023-06-10T05:43:42;8.80;;;5.45;;
50821;SDS011;36794;51.212;6.980;2023-06-10T05:46:08;9.65;;;6.25;;
50821;SDS011;36794;51.212;6.980;2023-06-10T05:48:34;8.13;;;6.45;;
50821;SDS011;36794;51.212;6.980;2023-06-10T05:51:00;13.25;;;6.28;;
50821;SDS011;36794;51.212;6.980;2023-06-10T05:53:26;12.00;;;6.70;;
50821;SDS011;36794;51.212;6.980;2023-06-10T05:55:52;8.13;;;5.75;;
50821;SDS011;36794;51.212;6.980;2023-06-10T05:58:22;6.93;;;5.70;;
50821;SDS011;36794;51.212;6.980;2023-06-10T06:00:50;9.57;;;5.57;;
50821;SDS011;36794;51.212;6.980;2023-06-10T06:03:16;9.23;;;6.20;;
50821;SDS011;36794;51.212;6.980;2023-06-10T06:05:45;7.55;;;5.85;;
50821;SDS011;36794;51.212;6.980;2023-06-10T06:08:14;7.70;;;5.53;;
50821;SDS011;36794;51.212;6.980;2023-06-10T06:10:44;9.25;;;6.05;;
50821;SDS011;36794;51.212;6.980;2023-06-10T06:13:10;8.95;;;5.93;;
50821;SDS011;36794;51.212;6.980;2023-06-10T06:15:36;8.75;;;6.00;;
50821;SDS011;36794;51.212;6.980;2023-06-10T06:18:02;11.25;;;5.65;;
50821;SDS011;36794;51.212;6.980;2023-06-10T06:20:28;8.43;;;6.18;;
50821;SDS011;36794;51.212;6.980;2023-06-10T06:22:54;8.43;;;5.55;;
50821;SDS011;36794;51.212;6.980;2023-06-10T06:25:23;7.65;;;5.38;;
50821;SDS011;36794;51.212;6.980;2023-06-10T06:27:49;11.95;;;5.60;;
50821;SDS011;36794;51.212;6.980;2023-06-10T06:30:15;7.22;;;5.05;;
50821;SDS011;36794;51.212;6.980;2023-06-10T06:32:43;7.90;;;5.28;;
50821;SDS011;36794;51.212;6.980;2023-06-10T06:35:09;8.55;;;5.55;;
50821;SDS011;36794;51.212;6.980;2023-06-10T06:37:35;9.30;;;6.07;;
50821;SDS011;36794;51.212;6.980;2023-06-10T06:40:01;7.28;;;5.30;;
50821;SDS011;36794;51.212;6.980;2023-06-10T06:42:28;11.25;;;5.78;;
50821;SDS011;36794;51.212;6.980;2023-06-10T06:44:54;9.55;;;5.85;;
50821;SDS011;36794;51.212;6.980;2023-06-10T06:47:20;9.52;;;5.88;;
50821;SDS011;36794;51.212;6.980;2023-06-10T06:49:46;10.02;;;5.32;;
50821;SDS011;36794;51.212;6.980;2023-06-10T06:52:13;9.27;;;5.13;;
50821;SDS011;36794;51.212;6.980;2023-06-10T06:54:39;8.25;;;5.55;;
50821;SDS011;36794;51.212;6.980;2023-06-10T06:57:05;8.25;;;5.65;;
50821;SDS011;36794;51.212;6.980;2023-06-10T06:59:32;6.50;;;5.45;;
50821;SDS011;36794;51.212;6.980;2023-06-10T07:01:58;8.43;;;5.25;;
50821;SDS011;36794;51.212;6.980;2023-06-10T07:04:24;7.95;;;5.50;;
50821;SDS011;36794;51.212;6.980;2023-06-10T07:06:53;8.02;;;5.60;;
50821;SDS011;36794;51.212;6.980;2023-06-10T07:09:25;8.63;;;5.57;;
50821;SDS011;36794;51.212;6.980;2023-06-10T07:11:53;12.43;;;5.25;;
50821;SDS011;36794;51.212;6.980;2023-06-10T07:14:22;8.43;;;5.05;;
50821;SDS011;36794;51.212;6.980;2023-06-10T07:16:51;12.00;;;5.70;;
50821;SDS011;36794;51.212;6.980;2023-06-10T07:19:17;10.38;;;5.38;;
50821;SDS011;36794;51.212;6.980;2023-06-10T07:21:43;14.10;;;5.40;;
50821;SDS011;36794;51.212;6.980;2023-06-10T07:24:09;7.20;;;4.68;;
50821;SDS011;36794;51.212;6.980;2023-06-10T07:26:37;7.80;;;5.38;;
50821;SDS011;36794;51.212;6.980;2023-06-10T07:29:03;7.25;;;5.00;;
50821;SDS011;36794;51.212;6.980;2023-06-10T07:31:29;12.93;;;5.55;;
50821;SDS011;36794;51.212;6.980;2023-06-10T07:33:55;6.57;;;4.93;;
50821;SDS011;36794;51.212;6.980;2023-06-10T07:36:21;9.52;;;5.30;;
50821;SDS011;36794;51.212;6.980;2023-06-10T07:38:48;9.57;;;5.40;;
50821;SDS011;36794;51.212;6.980;2023-06-10T07:41:14;7.60;;;5.18;;
50821;SDS011;36794;51.212;6.980;2023-06-10T07:43:42;6.93;;;4.97;;
50821;SDS011;36794;51.212;6.980;2023-06-10T07:46:09;6.03;;;4.60;;
50821;SDS011;36794;51.212;6.980;2023-06-10T07:48:35;10.18;;;5.40;;
50821;SDS011;36794;51.212;6.980;2023-06-10T07:51:01;11.07;;;4.97;;
50821;SDS011;36794;51.212;6.980;2023-06-10T07:53:26;8.57;;;4.47;;
50821;SDS011;36794;51.212;6.980;2023-06-10T07:55:55;9.15;;;5.03;;
50821;SDS011;36794;51.212;6.980;2023-06-10T07:58:24;8.63;;;5.30;;
50821;SDS011;36794;51.212;6.980;2023-06-10T08:00:53;6.60;;;4.70;;
50821;SDS011;36794;51.212;6.980;2023-06-10T08:03:22;7.88;;;5.07;;
50821;SDS011;36794;51.212;6.980;2023-06-10T08:05:48;7.93;;;4.90;;
50821;SDS011;36794;51.212;6.980;2023-06-10T08:08:14;8.30;;;4.70;;
50821;SDS011;36794;51.212;6.980;2023-06-10T08:10:40;8.55;;;4.60;;
50821;SDS011;36794;51.212;6.980;2023-06-10T08:13:07;11.70;;;5.50;;
50821;SDS011;36794;51.212;6.980;2023-06-10T08:18:02;5.95;;;4.80;;
50821;SDS011;36794;51.212;6.980;2023-06-10T08:20:28;8.13;;;5.05;;
50821;SDS011;36794;51.212;6.980;2023-06-10T08:22:54;7.55;;;5.20;;
50821;SDS011;36794;51.212;6.980;2023-06-10T08:25:20;6.90;;;5.03;;
50821;SDS011;36794;51.212;6.980;2023-06-10T08:27:47;8.30;;;5.10;;
50821;SDS011;36794;51.212;6.980;2023-06-10T08:30:13;14.18;;;5.15;;
50821;SDS011;36794;51.212;6.980;2023-06-10T08:32:39;9.77;;;4.70;;
50821;SDS011;36794;51.212;6.980;2023-06-10T08:35:05;12.27;;;5.15;;
50821;SDS011;36794;51.212;6.980;2023-06-10T08:37:31;11.68;;;5.43;;
50821;SDS011;36794;51.212;6.980;2023-06-10T08:39:57;8.90;;;4.95;;
50821;SDS011;36794;51.212;6.980;2023-06-10T08:42:24;10.85;;;5.60;;
50821;SDS011;36794;51.212;6.980;2023-06-10T08:44:53;9.80;;;5.15;;
50821;SDS011;36794;51.212;6.980;2023-06-10T08:47:24;6.63;;;4.93;;
50821;SDS011;36794;51.212;6.980;2023-06-10T08:49:50;6.85;;;4.95;;
50821;SDS011;36794;51.212;6.980;2023-06-10T08:52:21;7.07;;;5.40;;
50821;SDS011;36794;51.212;6.980;2023-06-10T08:54:57;8.68;;;4.97;;
50821;SDS011;36794;51.212;6.980;2023-06-10T08:57:25;12.40;;;5.18;;
50821;SDS011;36794;51.212;6.980;2023-06-10T08:59:51;7.93;;;4.93;;
50821;SDS011;36794;51.212;6.980;2023-06-10T09:02:17;8.88;;;5.10;;
50821;SDS011;36794;51.212;6.980;2023-06-10T09:04:45;9.25;;;4.78;;
50821;SDS011;36794;51.212;6.980;2023-06-10T09:07:13;9.40;;;5.00;;
50821;SDS011;36794;51.212;6.980;2023-06-10T09:09:39;5.75;;;4.95;;
50821;SDS011;36794;51.212;6.980;2023-06-10T09:12:07;8.23;;;4.57;;
50821;SDS011;36794;51.212;6.980;2023-06-10T09:14:33;7.20;;;4.93;;
50821;SDS011;36794;51.212;6.980;2023-06-10T09:16:59;6.53;;;5.07;;
50821;SDS011;36794;51.212;6.980;2023-06-10T09:19:25;11.13;;;4.90;;
50821;SDS011;36794;51.212;6.980;2023-06-10T09:21:52;9.48;;;4.70;;
50821;SDS011;36794;51.212;6.980;2023-06-10T09:24:18;11.68;;;4.60;;
50821;SDS011;36794;51.212;6.980;2023-06-10T09:26:44;6.80;;;4.70;;
50821;SDS011;36794;51.212;6.980;2023-06-10T09:29:11;6.63;;;4.57;;
50821;SDS011;36794;51.212;6.980;2023-06-10T09:31:40;7.10;;;4.65;;
50821;SDS011;36794;51.212;6.980;2023-06-10T09:34:11;9.77;;;4.50;;
50821;SDS011;36794;51.212;6.980;2023-06-10T09:36:37;8.73;;;4.78;;
50821;SDS011;36794;51.212;6.980;2023-06-10T09:39:03;6.35;;;4.60;;
50821;SDS011;36794;51.212;6.980;2023-06-10T09:41:33;8.23;;;4.82;;
50821;SDS011;36794;51.212;6.980;2023-06-10T09:44:00;5.40;;;4.68;;
50821;SDS011;36794;51.212;6.980;2023-06-10T09:46:30;9.48;;;4.32;;
50821;SDS011;36794;51.212;6.980;2023-06-10T09:48:57;7.35;;;4.22;;
50821;SDS011;36794;51.212;6.980;2023-06-10T09:51:23;7.28;;;4.60;;
50821;SDS011;36794;51.212;6.980;2023-06-10T09:53:52;5.82;;;4.60;;
50821;SDS011;36794;51.212;6.980;2023-06-10T09:56:19;8.23;;;4.70;;
50821;SDS011;36794;51.212;6.980;2023-06-10T09:58:45;8.23;;;4.70;;
50821;SDS011;36794;51.212;6.980;2023-06-10T10:01:13;6.95;;;4.72;;
50821;SDS011;36794;51.212;6.980;2023-06-10T10:03:45;6.60;;;4.25;;
50821;SDS011;36794;51.212;6.980;2023-06-10T10:06:12;7.10;;;4.55;;
50821;SDS011;36794;51.212;6.980;2023-06-10T10:08:38;9.05;;;4.72;;
50821;SDS011;36794;51.212;6.980;2023-06-10T10:11:04;7.78;;;4.47;;
50821;SDS011;36794;51.212;6.980;2023-06-10T10:13:31;6.50;;;4.18;;
50821;SDS011;36794;51.212;6.980;2023-06-10T10:15:59;7.38;;;4.35;;
50821;SDS011;36794;51.212;6.980;2023-06-10T10:20:55;7.53;;;4.07;;
50821;SDS011;36794;51.212;6.980;2023-06-10T10:23:24;11.02;;;4.75;;
50821;SDS011;36794;51.212;6.980;2023-06-10T10:25:51;7.78;;;3.95;;
50821;SDS011;36794;51.212;6.980;2023-06-10T10:28:19;16.23;;;4.50;;
50821;SDS011;36794;51.212;6.980;2023-06-10T10:30:49;6.65;;;4.18;;
50821;SDS011;36794;51.212;6.980;2023-06-10T10:33:16;9.05;;;4.40;;
50821;SDS011;36794;51.212;6.980;2023-06-10T10:35:44;6.15;;;4.53;;
50821;SDS011;36794;51.212;6.980;2023-06-10T10:38:11;7.57;;;4.40;;
50821;SDS011;36794;51.212;6.980;2023-06-10T10:40:38;6.60;;;3.83;;
50821;SDS011;36794;51.212;6.980;2023-06-10T10:43:04;5.55;;;4.22;;
50821;SDS011;36794;51.212;6.980;2023-06-10T10:45:31;6.75;;;4.57;;
50821;SDS011;36794;51.212;6.980;2023-06-10T10:47:58;6.65;;;4.28;;
50821;SDS011;36794;51.212;6.980;2023-06-10T10:50:30;8.63;;;3.90;;
50821;SDS011;36794;51.212;6.980;2023-06-10T10:52:59;8.00;;;4.32;;
50821;SDS011;36794;51.212;6.980;2023-06-10T10:55:25;7.13;;;4.45;;
50821;SDS011;36794;51.212;6.980;2023-06-10T10:58:07;9.45;;;4.05;;
50821;SDS011;36794;51.212;6.980;2023-06-10T11:00:35;7.90;;;4.40;;
50821;SDS011;36794;51.212;6.980;2023-06-10T11:03:07;7.13;;;4.80;;
50821;SDS011;36794;51.212;6.980;2023-06-10T11:05:44;6.60;;;3.97;;
50821;SDS011;36794;51.212;6.980;2023-06-10T11:08:13;5.80;;;4.15;;
50821;SDS011;36794;51.212;6.980;2023-06-10T11:10:51;9.80;;;4.00;;
50821;SDS011;36794;51.212;6.980;2023-06-10T11:13:19;7.13;;;3.50;;
50821;SDS011;36794;51.212;6.980;2023-06-10T11:15:46;7.30;;;4.30;;
50821;SDS011;36794;51.212;6.980;2023-06-10T11:20:41;6.00;;;3.80;;
50821;SDS011;36794;51.212;6.980;2023-06-10T11:23:07;7.13;;;3.80;;
50821;SDS011;36794;51.212;6.980;2023-06-10T11:25:40;7.93;;;3.95;;
50821;SDS011;36794;51.212;6.980;2023-06-10T11:28:18;7.13;;;3.95;;
50821;SDS011;36794;51.212;6.980;2023-06-10T11:30:45;5.70;;;3.72;;
50821;SDS011;36794;51.212;6.980;2023-06-10T11:33:17;8.45;;;4.18;;
50821;SDS011;36794;51.212;6.980;2023-06-10T11:35:43;6.82;;;4.20;;
50821;SDS011;36794;51.212;6.980;2023-06-10T11:38:09;5.53;;;4.15;;
50821;SDS011;36794;51.212;6.980;2023-06-10T11:40:38;6.22;;;4.07;;
50821;SDS011;36794;51.212;6.980;2023-06-10T11:43:05;8.18;;;4.03;;
50821;SDS011;36794;51.212;6.980;2023-06-10T11:45:31;6.60;;;4.22;;
50821;SDS011;36794;51.212;6.980;2023-06-10T11:47:57;10.85;;;5.10;;
50821;SDS011;36794;51.212;6.980;2023-06-10T11:50:33;6.88;;;4.53;;
50821;SDS011;36794;51.212;6.980;2023-06-10T11:52:59;10.80;;;4.93;;
50821;SDS011;36794;51.212;6.980;2023-06-10T11:58:12;8.93;;;4.47;;
50821;SDS011;36794;51.212;6.980;2023-06-10T12:00:45;9.80;;;4.68;;
50821;SDS011;36794;51.212;6.980;2023-06-10T12:03:11;7.63;;;4.82;;
50821;SDS011;36794;51.212;6.980;2023-06-10T12:05:37;9.15;;;4.75;;
50821;SDS011;36794;51.212;6.980;2023-06-10T12:08:09;8.75;;;4.47;;
50821;SDS011;36794;51.212;6.980;2023-06-10T12:10:40;7.50;;;5.00;;
50821;SDS011;36794;51.212;6.980;2023-06-10T12:13:06;10.35;;;4.30;;
50821;SDS011;36794;51.212;6.980;2023-06-10T12:15:32;6.43;;;4.80;;
50821;SDS011;36794;51.212;6.980;2023-06-10T12:17:58;8.77;;;4.88;;
50821;SDS011;36794;51.212;6.980;2023-06-10T12:20:28;9.27;;;4.55;;
50821;SDS011;36794;51.212;6.980;2023-06-10T12:22:55;7.90;;;4.60;;
50821;SDS011;36794;51.212;6.980;2023-06-10T12:25:24;8.40;;;4.72;;
50821;SDS011;36794;51.212;6.980;2023-06-10T12:27:52;6.80;;;4.47;;
50821;SDS011;36794;51.212;6.980;2023-06-10T12:30:19;6.55;;;4.30;;
50821;SDS011;36794;51.212;6.980;2023-06-10T12:32:46;7.10;;;4.55;;
50821;SDS011;36794;51.212;6.980;2023-06-10T12:35:13;9.85;;;4.30;;
50821;SDS011;36794;51.212;6.980;2023-06-10T12:37:40;11.13;;;4.57;;
50821;SDS011;36794;51.212;6.980;2023-06-10T12:40:06;9.13;;;4.55;;
50821;SDS011;36794;51.212;6.980;2023-06-10T12:42:33;5.97;;;4.38;;
50821;SDS011;36794;51.212;6.980;2023-06-10T12:45:01;5.38;;;4.13;;
50821;SDS011;36794;51.212;6.980;2023-06-10T12:47:30;7.05;;;4.10;;
50821;SDS011;36794;51.212;6.980;2023-06-10T12:49:57;4.82;;;4.00;;
50821;SDS011;36794;51.212;6.980;2023-06-10T12:52:24;8.90;;;4.30;;
50821;SDS011;36794;51.212;6.980;2023-06-10T12:54:50;7.97;;;4.00;;
50821;SDS011;36794;51.212;6.980;2023-06-10T12:57:17;6.05;;;4.20;;
50821;SDS011;36794;51.212;6.980;2023-06-10T12:59:43;7.93;;;4.18;;
50821;SDS011;36794;51.212;6.980;2023-06-10T13:02:17;7.90;;;4.45;;
50821;SDS011;36794;51.212;6.980;2023-06-10T13:04:43;7.47;;;4.25;;
50821;SDS011;36794;51.212;6.980;2023-06-10T13:07:09;12.18;;;4.75;;
50821;SDS011;36794;51.212;6.980;2023-06-10T13:09:35;6.80;;;4.22;;
50821;SDS011;36794;51.212;6.980;2023-06-10T13:12:02;7.18;;;4.18;;
50821;SDS011;36794;51.212;6.980;2023-06-10T13:14:28;8.05;;;3.92;;
50821;SDS011;36794;51.212;6.980;2023-06-10T13:16:54;8.43;;;4.20;;
50821;SDS011;36794;51.212;6.980;2023-06-10T13:19:20;10.00;;;4.40;;
50821;SDS011;36794;51.212;6.980;2023-06-10T13:21:47;7.30;;;4.40;;
50821;SDS011;36794;51.212;6.980;2023-06-10T13:24:13;7.25;;;4.47;;
50821;SDS011;36794;51.212;6.980;2023-06-10T13:26:39;13.32;;;4.40;;
50821;SDS011;36794;51.212;6.980;2023-06-10T13:29:05;6.60;;;4.03;;
50821;SDS011;36794;51.212;6.980;2023-06-10T13:31:33;5.85;;;4.38;;
50821;SDS011;36794;51.212;6.980;2023-06-10T13:33:59;7.80;;;4.35;;
50821;SDS011;36794;51.212;6.980;2023-06-10T13:36:25;6.70;;;4.00;;
50821;SDS011;36794;51.212;6.980;2023-06-10T13:38:51;7.10;;;4.25;;
50821;SDS011;36794;51.212;6.980;2023-06-10T13:41:16;6.20;;;4.38;;
50821;SDS011;36794;51.212;6.980;2023-06-10T13:43:42;7.55;;;4.30;;
50821;SDS011;36794;51.212;6.980;2023-06-10T13:46:08;10.73;;;3.97;;
50821;SDS011;36794;51.212;6.980;2023-06-10T13:48:35;8.15;;;4.47;;
50821;SDS011;36794;51.212;6.980;2023-06-10T13:51:01;5.95;;;3.83;;
50821;SDS011;36794;51.212;6.980;2023-06-10T13:53:27;6.60;;;4.38;;
50821;SDS011;36794;51.212;6.980;2023-06-10T13:55:53;11.75;;;4.32;;
50821;SDS011;36794;51.212;6.980;2023-06-10T13:58:19;7.50;;;4.32;;
50821;SDS011;36794;51.212;6.980;2023-06-10T14:00:45;7.85;;;4.07;;
50821;SDS011;36794;51.212;6.980;2023-06-10T14:03:12;7.32;;;3.85;;
50821;SDS011;36794;51.212;6.980;2023-06-10T14:05:38;6.50;;;4.57;;
50821;SDS011;36794;51.212;6.980;2023-06-10T14:08:04;7.05;;;3.78;;
50821;SDS011;36794;51.212;6.980;2023-06-10T14:10:30;8.02;;;4.47;;
50821;SDS011;36794;51.212;6.980;2023-06-10T14:12:56;7.47;;;4.32;;
50821;SDS011;36794;51.212;6.980;2023-06-10T14:15:22;6.88;;;4.30;;
50821;SDS011;36794;51.212;6.980;2023-06-10T14:17:48;7.03;;;4.18;;
50821;SDS011;36794;51.212;6.980;2023-06-10T14:20:14;9.38;;;4.10;;
50821;SDS011;36794;51.212;6.980;2023-06-10T14:22:40;5.40;;;4.05;;
50821;SDS011;36794;51.212;6.980;2023-06-10T14:25:07;6.30;;;4.10;;
50821;SDS011;36794;51.212;6.980;2023-06-10T14:27:33;11.18;;;4.13;;
50821;SDS011;36794;51.212;6.980;2023-06-10T14:29:59;7.18;;;4.25;;
50821;SDS011;36794;51.212;6.980;2023-06-10T14:32:25;6.65;;;4.38;;
50821;SDS011;36794;51.212;6.980;2023-06-10T14:34:51;8.27;;;4.90;;
50821;SDS011;36794;51.212;6.980;2023-06-10T14:37:17;8.50;;;4.45;;
50821;SDS011;36794;51.212;6.980;2023-06-10T14:39:43;7.03;;;4.25;;
50821;SDS011;36794;51.212;6.980;2023-06-10T14:42:09;8.75;;;4.00;;
50821;SDS011;36794;51.212;6.980;2023-06-10T14:44:35;7.00;;;4.05;;
50821;SDS011;36794;51.212;6.980;2023-06-10T14:47:01;6.45;;;4.32;;
50821;SDS011;36794;51.212;6.980;2023-06-10T14:49:27;7.15;;;3.92;;
50821;SDS011;36794;51.212;6.980;2023-06-10T14:51:53;7.05;;;4.45;;
50821;SDS011;36794;51.212;6.980;2023-06-10T14:54:19;8.18;;;4.63;;
50821;SDS011;36794;51.212;6.980;2023-06-10T14:56:45;5.45;;;4.15;;
50821;SDS011;36794;51.212;6.980;2023-06-10T14:59:11;7.53;;;4.20;;